createdAt,value
2018-08-10T00:00:16.169Z,99.90
2018-08-10T00:02:44.152Z,99.90
2018-08-10T00:05:12.133Z,99.90
2018-08-10T00:07:39.789Z,99.90
2018-08-10T00:10:09.260Z,99.90
2018-08-10T00:12:36.909Z,99.90
2018-08-10T00:15:05.497Z,99.90
2018-08-10T00:17:33.245Z,99.90
2018-08-10T00:20:00.903Z,99.90
2018-08-10T00:22:28.601Z,99.90
2018-08-10T00:24:56.245Z,99.90
2018-08-10T00:27:23.852Z,99.90
2018-08-10T00:29:51.476Z,99.90
2018-08-10T00:32:19.732Z,99.90
2018-08-10T00:34:47.472Z,99.90
2018-08-10T00:37:15.210Z,99.90
2018-08-10T00:39:42.836Z,99.90
2018-08-10T00:42:10.479Z,99.90
2018-08-10T00:44:38.044Z,99.90
2018-08-10T00:47:05.657Z,99.90
2018-08-10T00:49:33.358Z,99.90
2018-08-10T00:52:00.893Z,99.90
2018-08-10T00:54:28.509Z,99.90
2018-08-10T00:56:56.142Z,99.90
2018-08-10T00:59:23.765Z,99.90
2018-08-10T01:01:51.341Z,99.90
2018-08-10T01:04:18.969Z,99.50
2018-08-10T01:06:46.675Z,99.70
2018-08-10T01:09:14.301Z,99.20
2018-08-10T01:11:41.951Z,99.60
2018-08-10T01:14:09.647Z,98.60
2018-08-10T01:16:37.577Z,98.20
2018-08-10T01:19:05.283Z,97.80
2018-08-10T01:21:33.295Z,97.70
2018-08-10T01:24:00.904Z,97.90
2018-08-10T01:26:28.543Z,98.80
2018-08-10T01:28:56.332Z,98.70
2018-08-10T01:31:23.847Z,98.20
2018-08-10T01:33:52.202Z,98.40
2018-08-10T01:36:19.787Z,98.40
2018-08-10T01:38:47.417Z,98.70
2018-08-10T01:41:15.163Z,99.00
2018-08-10T01:43:42.765Z,98.80
2018-08-10T01:46:10.366Z,99.20
2018-08-10T01:48:38.010Z,99.10
2018-08-10T01:51:05.625Z,99.10
2018-08-10T01:53:33.198Z,99.20
2018-08-10T01:56:00.740Z,99.70
2018-08-10T01:58:28.425Z,99.60
2018-08-10T02:00:56.070Z,99.80
2018-08-10T02:03:23.737Z,99.70
2018-08-10T02:05:51.359Z,99.90
2018-08-10T02:08:19.054Z,99.90
2018-08-10T02:10:46.672Z,99.90
2018-08-10T02:13:14.301Z,99.90
2018-08-10T02:15:41.901Z,99.90
2018-08-10T02:18:09.529Z,99.90
2018-08-10T02:20:37.110Z,99.90
2018-08-10T02:23:04.704Z,99.90
2018-08-10T02:25:32.432Z,99.90
2018-08-10T02:28:00.004Z,99.90
2018-08-10T02:30:27.676Z,99.90
2018-08-10T02:32:55.276Z,99.90
2018-08-10T02:35:23.010Z,99.90
2018-08-10T02:37:50.620Z,99.90
2018-08-10T02:40:21.727Z,99.90
2018-08-10T02:42:50.043Z,99.90
2018-08-10T02:45:17.939Z,99.90
2018-08-10T02:47:46.247Z,99.90
2018-08-10T02:50:14.066Z,99.90
2018-08-10T02:52:41.809Z,99.90
2018-08-10T02:55:10.025Z,99.90
2018-08-10T02:57:38.089Z,99.90
2018-08-10T03:00:07.413Z,99.90
2018-08-10T03:02:35.115Z,99.90
2018-08-10T03:05:02.749Z,99.90
2018-08-10T03:07:30.475Z,99.90
2018-08-10T03:09:58.159Z,99.90
2018-08-10T03:12:25.789Z,99.90
2018-08-10T03:14:53.358Z,99.90
2018-08-10T03:17:21.564Z,99.90
2018-08-10T03:19:49.346Z,99.90
2018-08-10T03:22:16.960Z,99.90
2018-08-10T03:24:44.501Z,99.90
2018-08-10T03:27:12.081Z,99.90
2018-08-10T03:29:39.739Z,99.90
2018-08-10T03:32:07.786Z,99.90
2018-08-10T03:34:35.363Z,99.90
2018-08-10T03:37:03.058Z,99.90
2018-08-10T03:39:30.761Z,99.90
2018-08-10T03:41:58.431Z,99.90
2018-08-10T03:44:26.089Z,99.90
2018-08-10T03:46:53.732Z,99.90
2018-08-10T03:49:21.329Z,99.90
2018-08-10T03:51:48.961Z,99.90
2018-08-10T03:54:16.597Z,99.90
2018-08-10T03:56:44.241Z,99.90
2018-08-10T03:59:11.861Z,99.90
2018-08-10T04:01:39.473Z,99.90
2018-08-10T04:04:07.057Z,99.90
2018-08-10T04:06:34.653Z,99.90
2018-08-10T04:09:02.956Z,99.90
2018-08-10T04:11:30.561Z,99.90
2018-08-10T04:13:58.147Z,99.90
2018-08-10T04:16:25.995Z,99.90
2018-08-10T04:18:53.760Z,99.90
2018-08-10T04:21:21.441Z,99.90
2018-08-10T04:23:49.090Z,99.90
2018-08-10T04:26:16.834Z,99.90
2018-08-10T04:28:44.452Z,99.90
2018-08-10T04:31:12.271Z,99.90
2018-08-10T04:33:39.826Z,99.90
2018-08-10T04:36:07.406Z,99.90
2018-08-10T04:38:35.235Z,99.90
2018-08-10T04:41:02.814Z,99.90
2018-08-10T04:43:30.445Z,99.90
2018-08-10T04:45:58.096Z,99.90
2018-08-10T04:48:25.676Z,99.90
2018-08-10T04:50:53.214Z,99.90
2018-08-10T04:53:20.864Z,99.90
2018-08-10T04:55:48.476Z,99.90
2018-08-10T04:58:16.092Z,99.90
2018-08-10T05:00:43.729Z,99.90
2018-08-10T05:03:11.353Z,99.90
2018-08-10T05:05:39.084Z,99.90
2018-08-10T05:08:06.889Z,99.90
2018-08-10T05:10:34.477Z,97.40
2018-08-10T05:13:02.128Z,93.90
2018-08-10T05:15:29.793Z,89.70
2018-08-10T05:17:57.397Z,82.10
2018-08-10T05:20:25.073Z,79.40
2018-08-10T05:22:52.679Z,78.40
2018-08-10T05:25:20.269Z,79.60
2018-08-10T05:27:47.915Z,80.70
2018-08-10T05:30:15.621Z,77.10
2018-08-10T05:32:43.533Z,72.80
2018-08-10T05:35:11.199Z,70.40
2018-08-10T05:37:39.109Z,66.70
2018-08-10T05:40:07.958Z,62.20
2018-08-10T05:42:35.676Z,58.70
2018-08-10T05:45:04.102Z,56.10
2018-08-10T05:47:31.816Z,53.90
2018-08-10T05:49:59.362Z,51.70
2018-08-10T05:52:27.011Z,49.20
2018-08-10T05:54:54.644Z,48.80
2018-08-10T05:57:22.383Z,47.90
2018-08-10T05:59:49.988Z,48.00
2018-08-10T06:02:17.550Z,48.10
2018-08-10T06:04:45.063Z,47.40
2018-08-10T06:07:12.880Z,47.60
2018-08-10T06:09:40.486Z,47.80
2018-08-10T06:12:08.532Z,48.60
2018-08-10T06:14:36.136Z,50.10
2018-08-10T06:17:03.982Z,50.60
2018-08-10T06:19:31.729Z,51.60
2018-08-10T06:21:59.272Z,52.00
2018-08-10T06:24:26.854Z,51.90
2018-08-10T06:26:54.448Z,52.40
2018-08-10T06:29:22.042Z,52.90
2018-08-10T06:31:49.710Z,53.00
2018-08-10T06:34:17.262Z,53.00
2018-08-10T06:36:44.872Z,53.10
2018-08-10T06:39:12.647Z,53.70
2018-08-10T06:41:40.749Z,53.30
2018-08-10T06:44:08.493Z,53.00
2018-08-10T06:46:36.141Z,53.60
2018-08-10T06:49:03.797Z,53.40
2018-08-10T06:51:31.477Z,52.40
2018-08-10T06:53:59.183Z,51.80
2018-08-10T06:56:26.800Z,51.50
2018-08-10T06:58:54.652Z,50.90
2018-08-10T07:01:22.290Z,51.10
2018-08-10T07:03:50.038Z,51.00
2018-08-10T07:06:17.625Z,49.40
2018-08-10T07:09:13.317Z,49.60
2018-08-10T07:11:41.023Z,49.20
2018-08-10T07:14:08.937Z,48.00
2018-08-10T07:16:36.534Z,47.30
2018-08-10T07:19:04.233Z,46.00
2018-08-10T07:21:31.901Z,46.30
2018-08-10T07:23:59.470Z,45.50
2018-08-10T07:26:27.101Z,45.20
2018-08-10T07:28:54.740Z,44.80
2018-08-10T07:31:22.299Z,43.70
2018-08-10T07:33:50.322Z,43.30
2018-08-10T07:36:18.927Z,42.90
2018-08-10T07:38:46.520Z,42.00
2018-08-10T07:41:14.128Z,41.60
2018-08-10T07:43:41.676Z,40.70
2018-08-10T07:46:09.315Z,39.90
2018-08-10T07:48:41.733Z,38.80
2018-08-10T07:51:09.369Z,38.70
2018-08-10T07:53:36.955Z,37.80
2018-08-10T07:56:04.657Z,37.60
2018-08-10T07:58:32.265Z,37.10
2018-08-10T08:00:59.949Z,35.50
2018-08-10T08:03:27.646Z,34.10
2018-08-10T08:05:55.309Z,33.10
2018-08-10T08:08:22.909Z,32.20
2018-08-10T08:10:50.578Z,33.70
2018-08-10T08:13:18.278Z,33.70
2018-08-10T08:15:45.902Z,34.00
2018-08-10T08:18:13.558Z,32.50
2018-08-10T08:20:54.074Z,32.60
2018-08-10T08:23:22.695Z,32.10
2018-08-10T08:25:50.348Z,31.90
2018-08-10T08:28:22.372Z,31.70
2018-08-10T08:30:49.975Z,29.60
2018-08-10T08:33:17.773Z,28.40
2018-08-10T08:35:45.935Z,27.60
2018-08-10T08:38:25.743Z,27.50
2018-08-10T08:40:53.565Z,27.10
2018-08-10T08:43:31.466Z,27.00
2018-08-10T08:46:07.582Z,26.80
2018-08-10T08:48:37.547Z,26.90
2018-08-10T08:51:07.722Z,28.30
2018-08-10T08:53:35.506Z,29.40
2018-08-10T08:56:05.916Z,29.00
2018-08-10T08:58:34.239Z,28.60
2018-08-10T09:01:02.205Z,28.50
2018-08-10T09:03:41.196Z,29.30
2018-08-10T09:06:09.012Z,30.80
2018-08-10T09:08:36.932Z,33.00
2018-08-10T09:11:06.537Z,34.70
2018-08-10T09:14:54.445Z,36.10
2018-08-10T09:17:22.757Z,37.80
2018-08-10T09:19:50.529Z,39.30
2018-08-10T09:22:18.179Z,38.90
2018-08-10T09:24:45.959Z,41.00
2018-08-10T09:27:13.793Z,40.90
2018-08-10T09:29:41.437Z,41.20
2018-08-10T09:32:09.647Z,42.10
2018-08-10T09:34:37.301Z,42.40
2018-08-10T09:37:05.590Z,42.50
2018-08-10T09:39:33.218Z,43.50
2018-08-10T09:42:01.985Z,43.20
2018-08-10T09:44:30.359Z,44.70
2018-08-10T09:46:58.250Z,44.90
2018-08-10T09:49:29.762Z,44.70
2018-08-10T09:51:57.450Z,45.50
2018-08-10T09:54:25.015Z,46.90
2018-08-10T09:56:53.256Z,47.10
2018-08-10T09:59:20.851Z,47.80
2018-08-10T10:01:54.249Z,47.10
2018-08-10T10:04:21.909Z,47.10
2018-08-10T10:06:49.485Z,48.70
2018-08-10T10:09:17.133Z,49.10
2018-08-10T10:11:44.757Z,49.10
2018-08-10T10:14:12.437Z,49.10
2018-08-10T10:16:40.072Z,49.20
2018-08-10T10:19:07.839Z,48.60
2018-08-10T10:21:35.425Z,49.20
2018-08-10T10:24:03.053Z,49.30
2018-08-10T10:26:30.729Z,49.20
2018-08-10T10:28:58.360Z,49.10
2018-08-10T10:31:26.093Z,48.70
2018-08-10T10:33:53.726Z,49.50
2018-08-10T10:36:21.365Z,49.90
2018-08-10T10:38:48.943Z,49.40
2018-08-10T10:41:16.549Z,50.00
2018-08-10T10:43:44.129Z,50.20
2018-08-10T10:46:11.702Z,50.40
2018-08-10T10:48:39.378Z,51.00
2018-08-10T10:51:06.958Z,50.00
2018-08-10T10:53:34.570Z,49.60
2018-08-10T10:56:02.237Z,49.70
2018-08-10T10:58:29.839Z,49.60
2018-08-10T11:00:57.454Z,49.10
2018-08-10T11:03:25.094Z,49.70
2018-08-10T11:05:52.639Z,49.20
2018-08-10T11:08:20.250Z,49.40
2018-08-10T11:10:47.854Z,49.40
2018-08-10T11:13:15.562Z,49.50
2018-08-10T11:15:43.192Z,50.40
2018-08-10T11:18:10.896Z,49.70
2018-08-10T11:20:38.509Z,49.60
2018-08-10T11:23:06.140Z,49.00
2018-08-10T11:25:33.804Z,49.30
2018-08-10T11:28:01.450Z,48.70
2018-08-10T11:30:29.098Z,49.20
2018-08-10T11:32:56.679Z,49.30
2018-08-10T11:35:24.299Z,48.70
2018-08-10T11:37:52.157Z,48.40
2018-08-10T11:40:19.824Z,49.10
2018-08-10T11:42:47.478Z,48.40
2018-08-10T11:45:16.669Z,49.30
2018-08-10T11:47:44.455Z,50.20
2018-08-10T11:50:12.338Z,49.90
2018-08-10T11:52:39.987Z,49.30
2018-08-10T11:55:10.134Z,49.60
2018-08-10T11:57:37.729Z,50.20
2018-08-10T12:00:06.924Z,50.10
2018-08-10T12:02:34.453Z,49.20
2018-08-10T12:05:02.083Z,48.40
2018-08-10T12:07:31.357Z,49.30
2018-08-10T12:09:58.936Z,48.50
2018-08-10T12:12:26.542Z,48.90
2018-08-10T12:14:54.094Z,49.40
2018-08-10T12:17:21.745Z,49.20
2018-08-10T12:19:49.306Z,49.00
2018-08-10T12:22:16.917Z,48.60
2018-08-10T12:24:44.595Z,49.10
2018-08-10T12:27:12.164Z,48.40
2018-08-10T12:29:39.752Z,48.50
2018-08-10T12:32:07.846Z,49.30
2018-08-10T12:34:35.441Z,48.10
2018-08-10T12:37:03.066Z,47.90
2018-08-10T12:39:30.677Z,47.70
2018-08-10T12:41:58.347Z,46.90
2018-08-10T12:44:25.917Z,45.90
2018-08-10T12:46:53.525Z,46.30
2018-08-10T12:49:21.142Z,45.80
2018-08-10T12:51:48.789Z,44.60
2018-08-10T12:54:16.420Z,44.20
2018-08-10T12:56:44.054Z,44.80
2018-08-10T12:59:11.651Z,44.40
2018-08-10T13:01:39.294Z,44.20
2018-08-10T13:04:06.892Z,43.70
2018-08-10T13:06:34.524Z,44.80
2018-08-10T13:09:02.842Z,44.50
2018-08-10T13:11:30.483Z,44.80
2018-08-10T13:13:58.124Z,43.70
2018-08-10T13:16:25.759Z,45.10
2018-08-10T13:18:53.754Z,45.10
2018-08-10T13:21:21.485Z,45.60
2018-08-10T13:23:49.224Z,46.50
2018-08-10T13:26:16.814Z,45.70
2018-08-10T13:28:44.391Z,45.50
2018-08-10T13:31:12.135Z,45.60
2018-08-10T13:33:39.929Z,46.00
2018-08-10T13:36:07.807Z,46.00
2018-08-10T13:38:35.452Z,45.50
2018-08-10T13:41:03.470Z,45.50
2018-08-10T13:43:30.976Z,45.70
2018-08-10T13:45:58.627Z,45.70
2018-08-10T13:48:26.245Z,45.80
2018-08-10T13:50:53.819Z,45.20
2018-08-10T13:53:21.553Z,45.90
2018-08-10T13:55:49.287Z,45.80
2018-08-10T13:58:16.897Z,46.50
2018-08-10T14:00:44.543Z,45.40
2018-08-10T14:03:12.153Z,45.80
2018-08-10T14:05:39.863Z,46.20
2018-08-10T14:08:07.946Z,45.80
2018-08-10T14:10:35.574Z,46.40
2018-08-10T14:13:03.230Z,46.10
2018-08-10T14:15:31.070Z,46.10
2018-08-10T14:17:58.641Z,45.10
2018-08-10T14:20:26.253Z,45.70
2018-08-10T14:22:53.935Z,46.30
2018-08-10T14:25:21.561Z,44.90
2018-08-10T14:27:49.248Z,44.60
2018-08-10T14:30:16.794Z,44.70
2018-08-10T14:32:44.418Z,44.60
2018-08-10T14:35:12.801Z,43.90
2018-08-10T14:37:40.514Z,43.90
2018-08-10T14:40:10.029Z,44.00
2018-08-10T14:42:37.736Z,43.80
2018-08-10T14:45:07.646Z,44.10
2018-08-10T14:47:35.286Z,44.10
2018-08-10T14:50:03.861Z,44.00
2018-08-10T14:52:31.514Z,44.00
2018-08-10T14:54:59.166Z,43.80
2018-08-10T14:57:26.771Z,43.80
2018-08-10T14:59:54.391Z,44.70
2018-08-10T15:02:22.085Z,44.00
2018-08-10T15:04:49.752Z,44.10
2018-08-10T15:07:17.361Z,42.90
2018-08-10T15:09:44.975Z,43.30
2018-08-10T15:12:12.732Z,43.70
2018-08-10T15:14:40.385Z,43.80
2018-08-10T15:17:08.054Z,44.60
2018-08-10T15:19:35.687Z,45.00
2018-08-10T15:22:03.323Z,44.90
2018-08-10T15:24:31.093Z,44.90
2018-08-10T15:26:58.685Z,44.60
2018-08-10T15:29:26.369Z,43.90
2018-08-10T15:31:53.991Z,43.80
2018-08-10T15:34:21.551Z,43.80
2018-08-10T15:36:49.181Z,43.80
2018-08-10T15:39:16.762Z,44.30
2018-08-10T15:41:44.484Z,43.50
2018-08-10T15:44:12.125Z,44.10
2018-08-10T15:46:39.738Z,43.20
2018-08-10T15:49:07.365Z,42.80
2018-08-10T15:51:35.026Z,43.10
2018-08-10T15:54:02.603Z,42.60
2018-08-10T15:56:30.266Z,42.60
2018-08-10T15:58:57.895Z,42.70
2018-08-10T16:01:25.578Z,43.50
2018-08-10T16:03:53.427Z,42.50
2018-08-10T16:06:21.169Z,42.50
2018-08-10T16:08:48.782Z,42.00
2018-08-10T16:11:16.368Z,44.10
2018-08-10T16:13:44.001Z,43.20
2018-08-10T16:16:11.988Z,41.90
2018-08-10T16:18:39.760Z,42.20
2018-08-10T16:21:07.417Z,41.80
2018-08-10T16:23:35.040Z,42.30
2018-08-10T16:26:02.620Z,42.40
2018-08-10T16:28:30.350Z,42.50
2018-08-10T16:30:57.942Z,42.30
2018-08-10T16:33:25.652Z,43.70
2018-08-10T16:35:53.299Z,42.70
2018-08-10T16:38:20.934Z,43.10
2018-08-10T16:40:48.558Z,43.70
2018-08-10T16:43:16.130Z,44.20
2018-08-10T16:45:43.760Z,44.20
2018-08-10T16:48:11.312Z,44.70
2018-08-10T16:50:39.085Z,44.60
2018-08-10T16:53:06.637Z,44.00
2018-08-10T16:55:34.230Z,43.90
2018-08-10T16:58:01.865Z,44.00
2018-08-10T17:00:29.527Z,43.20
2018-08-10T17:02:57.218Z,43.00
2018-08-10T17:05:25.069Z,42.90
2018-08-10T17:07:52.577Z,43.30
2018-08-10T17:10:20.351Z,44.10
2018-08-10T17:12:47.992Z,43.60
2018-08-10T17:15:17.331Z,43.50
2018-08-10T17:17:46.315Z,43.60
2018-08-10T17:20:14.493Z,44.00
2018-08-10T17:22:42.742Z,44.40
2018-08-10T17:25:11.933Z,44.80
2018-08-10T17:27:39.689Z,45.10
2018-08-10T17:30:09.848Z,45.30
2018-08-10T17:32:37.954Z,44.60
2018-08-10T17:35:06.590Z,44.70
2018-08-10T17:37:34.207Z,45.20
2018-08-10T17:40:01.908Z,44.90
2018-08-10T17:42:29.628Z,46.00
2018-08-10T17:44:57.290Z,45.80
2018-08-10T17:47:24.915Z,45.80
2018-08-10T17:49:52.602Z,45.70
2018-08-10T17:52:20.171Z,46.00
2018-08-10T17:54:47.810Z,45.80
2018-08-10T17:57:15.530Z,46.20
2018-08-10T17:59:43.123Z,45.90
2018-08-10T18:02:10.824Z,46.00
2018-08-10T18:04:38.426Z,46.40
2018-08-10T18:07:06.526Z,46.10
2018-08-10T18:09:34.162Z,46.70
2018-08-10T18:12:02.034Z,47.00
2018-08-10T18:14:29.678Z,47.40
2018-08-10T18:16:57.324Z,46.80
2018-08-10T18:19:24.946Z,47.10
2018-08-10T18:21:52.930Z,47.00
2018-08-10T18:24:20.684Z,47.40
2018-08-10T18:26:48.362Z,47.50
2018-08-10T18:29:16.622Z,47.80
2018-08-10T18:31:44.567Z,47.60
2018-08-10T18:34:12.279Z,48.00
2018-08-10T18:36:39.856Z,47.90
2018-08-10T18:39:11.267Z,48.10
2018-08-10T18:41:39.326Z,48.10
2018-08-10T18:44:07.378Z,48.20
2018-08-10T18:46:35.018Z,48.50
2018-08-10T18:49:02.628Z,48.30
2018-08-10T18:51:30.274Z,48.60
2018-08-10T18:53:58.254Z,49.00
2018-08-10T18:56:25.923Z,49.00
2018-08-10T18:58:53.652Z,49.20
2018-08-10T19:01:21.391Z,49.00
2018-08-10T19:03:49.042Z,49.00
2018-08-10T19:06:16.660Z,49.90
2018-08-10T19:08:44.390Z,49.50
2018-08-10T19:11:12.142Z,49.80
2018-08-10T19:13:40.031Z,49.70
2018-08-10T19:16:07.812Z,50.00
2018-08-10T19:18:35.398Z,50.20
2018-08-10T19:21:17.794Z,50.30
2018-08-10T19:23:45.480Z,50.30
2018-08-10T19:26:13.285Z,50.50
2018-08-10T19:28:40.933Z,50.60
2018-08-10T19:31:08.599Z,50.70
2018-08-10T19:33:36.265Z,50.80
2018-08-10T19:36:05.770Z,51.00
2018-08-10T19:38:33.429Z,51.10
2018-08-10T19:41:01.143Z,51.20
2018-08-10T19:43:28.872Z,51.20
2018-08-10T19:45:56.501Z,51.20
2018-08-10T19:48:24.198Z,51.40
2018-08-10T19:50:51.854Z,52.20
2018-08-10T19:53:19.416Z,51.50
2018-08-10T19:55:47.100Z,51.70
2018-08-10T19:58:14.994Z,52.00
2018-08-10T20:00:42.827Z,51.90
2018-08-10T20:03:10.829Z,52.20
2018-08-10T20:05:38.513Z,52.30
2018-08-10T20:08:06.320Z,52.30
2018-08-10T20:10:33.989Z,52.30
2018-08-10T20:13:01.625Z,52.50
2018-08-10T20:15:29.562Z,52.80
2018-08-10T20:17:57.321Z,52.70
2018-08-10T20:20:24.910Z,52.80
2018-08-10T20:22:52.613Z,53.20
2018-08-10T20:25:20.318Z,53.60
2018-08-10T20:27:48.024Z,53.80
2018-08-10T20:30:17.246Z,53.90
2018-08-10T20:32:45.320Z,53.90
2018-08-10T20:35:14.636Z,53.70
2018-08-10T20:37:42.473Z,53.50
2018-08-10T20:40:12.332Z,53.70
2018-08-10T20:42:40.000Z,53.70
2018-08-10T20:45:07.679Z,53.30
2018-08-10T20:47:35.889Z,53.00
2018-08-10T20:50:06.569Z,52.80
2018-08-10T20:52:34.329Z,53.00
2018-08-10T20:55:02.002Z,52.50
2018-08-10T20:57:30.976Z,52.60
2018-08-10T20:59:58.552Z,52.60
2018-08-10T21:02:26.261Z,53.00
2018-08-10T21:04:53.878Z,53.00
2018-08-10T21:07:21.662Z,53.20
2018-08-10T21:09:49.362Z,53.10
2018-08-10T21:12:17.071Z,53.30
2018-08-10T21:14:44.826Z,53.30
2018-08-10T21:17:12.524Z,53.30
2018-08-10T21:19:40.168Z,52.60
2018-08-10T21:22:08.175Z,52.30
2018-08-10T21:24:35.856Z,51.80
2018-08-10T21:27:03.708Z,51.80
2018-08-10T21:29:31.304Z,51.50
2018-08-10T21:31:58.940Z,51.50
2018-08-10T21:34:26.644Z,51.90
2018-08-10T21:36:54.310Z,52.20
2018-08-10T21:39:21.892Z,52.20
2018-08-10T21:41:49.562Z,52.10
2018-08-10T21:44:17.236Z,52.30
2018-08-10T21:46:44.890Z,52.40
2018-08-10T21:49:12.794Z,53.00
2018-08-10T21:51:40.442Z,52.80
2018-08-10T21:54:08.185Z,52.90
2018-08-10T21:56:35.990Z,52.90
2018-08-10T21:59:03.801Z,52.80
2018-08-10T22:01:31.560Z,52.70
2018-08-10T22:04:02.059Z,52.80
2018-08-10T22:06:30.438Z,52.70
2018-08-10T22:08:58.081Z,52.80
2018-08-10T22:11:25.788Z,53.00
2018-08-10T22:13:59.014Z,53.80
2018-08-10T22:16:32.189Z,53.20
2018-08-10T22:19:05.626Z,53.70
2018-08-10T22:21:33.360Z,53.30
2018-08-10T22:24:00.996Z,53.40
2018-08-10T22:26:28.644Z,53.80
2018-08-10T22:28:56.264Z,54.40
2018-08-10T22:31:23.929Z,54.40
2018-08-10T22:33:51.544Z,54.80
2018-08-10T22:36:19.512Z,55.10
2018-08-10T22:38:47.180Z,55.20
2018-08-10T22:41:14.853Z,55.10
2018-08-10T22:43:42.500Z,55.40
2018-08-10T22:46:10.108Z,55.60
2018-08-10T22:48:37.802Z,55.80
2018-08-10T22:51:05.438Z,55.50
2018-08-10T22:53:33.108Z,56.20
2018-08-10T22:56:00.746Z,56.40
2018-08-10T22:58:28.426Z,57.30
2018-08-10T23:00:56.330Z,57.20
2018-08-10T23:03:23.926Z,57.40
2018-08-10T23:05:51.560Z,58.20
2018-08-10T23:08:19.220Z,58.80
2018-08-10T23:10:46.916Z,59.10
2018-08-10T23:13:14.650Z,59.20
2018-08-10T23:15:42.237Z,58.90
2018-08-10T23:18:09.870Z,58.80
2018-08-10T23:20:37.842Z,59.00
2018-08-10T23:23:05.517Z,59.20
2018-08-10T23:25:33.202Z,59.70
2018-08-10T23:28:00.802Z,59.90
2018-08-10T23:30:28.752Z,60.40
2018-08-10T23:32:56.348Z,60.90
2018-08-10T23:35:23.992Z,61.20
2018-08-10T23:37:51.594Z,61.30
2018-08-10T23:40:19.228Z,61.70
2018-08-10T23:42:46.865Z,62.50
2018-08-10T23:45:14.982Z,62.80
2018-08-10T23:47:43.304Z,62.70
2018-08-10T23:50:16.243Z,63.10
2018-08-10T23:52:44.417Z,63.20
2018-08-10T23:55:13.599Z,63.10
2018-08-10T23:57:41.422Z,62.80
